Lunamar — 5BNV2 — position and weather

sailwx.info

Track history (hours):
 
Tides and Currents Weather Stations Pressure Air Temp Water Temp Dewpoint Dewpoint Depression Visibility Wind Speed Wind Dir Waves Ship Positions

Lunamar

Last reported at 2014-Aug-21 01:33 UTC. Time now 2014-Aug-21 02:23 UTC.
Position N 51°23' E 004°13'.

Length 76 m; draft 3.6 m.

Type: Cargo ship. MMSI: 212762000.

Date/timePositionNaut miles runAvg speedWind from/ knotsBaromVisibWave heightAir tempDewpointWater temp
2014-Aug-21 01:33N 51°23' E 004°13'8 7.9
2014-Aug-21 00:33N 51°17' E 004°20'2 2.0
2014-Aug-20 23:34N 51°15' E 004°22'2 1.5
2014-Aug-20 22:32N 51°15' E 004°24'0 0.0
2014-Aug-20 21:32N 51°15' E 004°24'0 0.0
2014-Aug-20 20:32N 51°15' E 004°24'0 0.0
2014-Aug-20 19:32N 51°15' E 004°24'0 0.1
2014-Aug-20 18:32N 51°15' E 004°24'0 0.0
2014-Aug-20 17:32N 51°15' E 004°24'0 0.0
2014-Aug-20 16:32N 51°15' E 004°24'0 0.0
2014-Aug-20 15:32N 51°15' E 004°24'0 0.0
2014-Aug-20 14:32N 51°15' E 004°24'0 0.0
2014-Aug-20 13:32N 51°15' E 004°24'0 0.0
2014-Aug-20 12:32N 51°15' E 004°24'0 0.0
2014-Aug-20 11:32N 51°15' E 004°24'0 0.0
2014-Aug-20 10:32N 51°15' E 004°24'2 1.8
2014-Aug-20 09:33N 51°16' E 004°21'1 1.3
2014-Aug-20 08:31N 51°17' E 004°21'0 0.0
2014-Aug-20 07:31N 51°17' E 004°21'0 0.0
2014-Aug-20 06:31N 51°17' E 004°21'0 0.0
2014-Aug-20 05:31N 51°17' E 004°21'0 0.0
2014-Aug-20 04:31N 51°17' E 004°21'0 0.0
2014-Aug-20 03:22N 51°17' E 004°21'0 0.0
2014-Aug-20 02:31N 51°17' E 004°21'0 0.0
2014-Aug-20 01:31N 51°17' E 004°21'0 0.0
2014-Aug-20 00:31N 51°17' E 004°21'0 0.0
2014-Aug-19 23:31N 51°17' E 004°21'0 0.0
2014-Aug-19 22:31N 51°17' E 004°21'0 0.0
2014-Aug-19 21:28N 51°17' E 004°21'0 0.0
2014-Aug-19 20:31N 51°17' E 004°21'1 1.0
2014-Aug-19 19:33N 51°18' E 004°20'3 3.5
2014-Aug-19 18:33N 51°21' E 004°17'0 0.0
2014-Aug-19 17:32N 51°21' E 004°17'1 1.3
2014-Aug-19 16:33N 51°21' E 004°15'5 4.6
2014-Aug-19 15:31N 51°22' E 004°08'6 6.3
2014-Aug-19 14:33N 51°26' E 004°00'8 8.0
2014-Aug-19 13:33N 51°21' E 003°51'8 8.4
2014-Aug-19 12:33N 51°25' E 003°39'8 7.8
2014-Aug-19 11:33N 51°29' E 003°29'10 8.9
2014-Aug-19 10:26N 51°38' E 003°21'7 8.3
2014-Aug-19 09:32N 51°45' E 003°16'116 8.9
2014-Aug-18 20:33N 53°29' E 004°39'8 8.0
2014-Aug-18 19:33N 53°33' E 004°51'9 8.1
2014-Aug-18 18:27N 53°36' E 005°05'7 7.7
2014-Aug-18 17:31N 53°38' E 005°16'7 7.6
2014-Aug-18 16:33N 53°40' E 005°28'7 7.0
2014-Aug-18 15:33N 53°42' E 005°40'7 6.9
2014-Aug-18 14:33N 53°44' E 005°51'5 5.2
2014-Aug-18 13:33N 53°46' E 005°59'56 5.1
2014-Aug-18 02:33N 54°00' E 007°31'5 5.4
2014-Aug-18 01:33N 54°01' E 007°40'5 5.4
2014-Aug-18 00:33N 54°02' E 007°49'48 7.9
2014-Aug-17 18:33N 53°54' E 009°09'7 7.2
2014-Aug-17 17:33N 53°59' E 009°17'4 3.8
2014-Aug-17 16:33N 54°03' E 009°18'8 7.1
2014-Aug-17 15:29N 54°10' E 009°24'8 8.4
2014-Aug-17 14:31N 54°13' E 009°36'67 6.5
2014-Aug-17 04:13N 54°31' E 011°27'6 8.4
2014-Aug-17 03:33N 54°29' E 011°36'16 8.0
2014-Aug-17 01:33N 54°26' E 012°03'168 9.8
2014-Aug-16 08:31N 55°57' E 016°10'8210.0
2014-Aug-16 00:17N 57°08' E 017°27'710.3
2014-Aug-15 23:33N 57°15' E 017°32'  
Track history (hours):
 
Tides and Currents Weather Stations Pressure Air Temp Water Temp Dewpoint Dewpoint Depression Visibility Wind Speed Wind Dir Waves Ship Positions

Lunamar

Last reported at 2014-Aug-21 01:33 UTC. Time now 2014-Aug-21 02:23 UTC.
Position N 51°23' E 004°13'.

Length 76 m; draft 3.6 m.

Type: Cargo ship. MMSI: 212762000.

Date/timePositionNaut miles runAvg speedWind from/ knotsBaromVisibWave heightAir tempDewpointWater temp
2014-Aug-21 01:33N 51°23' E 004°13'8 7.9
2014-Aug-21 00:33N 51°17' E 004°20'2 2.0
2014-Aug-20 23:34N 51°15' E 004°22'2 1.5
2014-Aug-20 22:32N 51°15' E 004°24'0 0.0
2014-Aug-20 21:32N 51°15' E 004°24'0 0.0
2014-Aug-20 20:32N 51°15' E 004°24'0 0.0
2014-Aug-20 19:32N 51°15' E 004°24'0 0.1
2014-Aug-20 18:32N 51°15' E 004°24'0 0.0
2014-Aug-20 17:32N 51°15' E 004°24'0 0.0
2014-Aug-20 16:32N 51°15' E 004°24'0 0.0
2014-Aug-20 15:32N 51°15' E 004°24'0 0.0
2014-Aug-20 14:32N 51°15' E 004°24'0 0.0
2014-Aug-20 13:32N 51°15' E 004°24'0 0.0
2014-Aug-20 12:32N 51°15' E 004°24'0 0.0
2014-Aug-20 11:32N 51°15' E 004°24'0 0.0
2014-Aug-20 10:32N 51°15' E 004°24'2 1.8
2014-Aug-20 09:33N 51°16' E 004°21'1 1.3
2014-Aug-20 08:31N 51°17' E 004°21'0 0.0
2014-Aug-20 07:31N 51°17' E 004°21'0 0.0
2014-Aug-20 06:31N 51°17' E 004°21'0 0.0
2014-Aug-20 05:31N 51°17' E 004°21'0 0.0
2014-Aug-20 04:31N 51°17' E 004°21'0 0.0
2014-Aug-20 03:22N 51°17' E 004°21'0 0.0
2014-Aug-20 02:31N 51°17' E 004°21'0 0.0
2014-Aug-20 01:31N 51°17' E 004°21'0 0.0
2014-Aug-20 00:31N 51°17' E 004°21'0 0.0
2014-Aug-19 23:31N 51°17' E 004°21'0 0.0
2014-Aug-19 22:31N 51°17' E 004°21'0 0.0
2014-Aug-19 21:28N 51°17' E 004°21'0 0.0
2014-Aug-19 20:31N 51°17' E 004°21'1 1.0
2014-Aug-19 19:33N 51°18' E 004°20'3 3.5
2014-Aug-19 18:33N 51°21' E 004°17'0 0.0
2014-Aug-19 17:32N 51°21' E 004°17'1 1.3
2014-Aug-19 16:33N 51°21' E 004°15'5 4.6
2014-Aug-19 15:31N 51°22' E 004°08'6 6.3
2014-Aug-19 14:33N 51°26' E 004°00'8 8.0
2014-Aug-19 13:33N 51°21' E 003°51'8 8.4
2014-Aug-19 12:33N 51°25' E 003°39'8 7.8
2014-Aug-19 11:33N 51°29' E 003°29'10 8.9
2014-Aug-19 10:26N 51°38' E 003°21'7 8.3
2014-Aug-19 09:32N 51°45' E 003°16'116 8.9
2014-Aug-18 20:33N 53°29' E 004°39'8 8.0
2014-Aug-18 19:33N 53°33' E 004°51'9 8.1
2014-Aug-18 18:27N 53°36' E 005°05'7 7.7
2014-Aug-18 17:31N 53°38' E 005°16'7 7.6
2014-Aug-18 16:33N 53°40' E 005°28'7 7.0
2014-Aug-18 15:33N 53°42' E 005°40'7 6.9
2014-Aug-18 14:33N 53°44' E 005°51'5 5.2
2014-Aug-18 13:33N 53°46' E 005°59'56 5.1
2014-Aug-18 02:33N 54°00' E 007°31'5 5.4
2014-Aug-18 01:33N 54°01' E 007°40'5 5.4
2014-Aug-18 00:33N 54°02' E 007°49'48 7.9
2014-Aug-17 18:33N 53°54' E 009°09'7 7.2
2014-Aug-17 17:33N 53°59' E 009°17'4 3.8
2014-Aug-17 16:33N 54°03' E 009°18'8 7.1
2014-Aug-17 15:29N 54°10' E 009°24'8 8.4
2014-Aug-17 14:31N 54°13' E 009°36'67 6.5
2014-Aug-17 04:13N 54°31' E 011°27'6 8.4
2014-Aug-17 03:33N 54°29' E 011°36'16 8.0
2014-Aug-17 01:33N 54°26' E 012°03'168 9.8
2014-Aug-16 08:31N 55°57' E 016°10'8210.0
2014-Aug-16 00:17N 57°08' E 017°27'710.3
2014-Aug-15 23:33N 57°15' E 017°32'  

Dump ship's entire track history